createdAt,value
2022-12-20T00:02:26.913Z,41.70
2022-12-20T00:06:29.241Z,39.33
2022-12-20T00:10:30.997Z,36.20
2022-12-20T00:14:32.724Z,35.70
2022-12-20T00:18:34.908Z,36.23
2022-12-20T00:22:36.698Z,36.93
2022-12-20T00:26:38.579Z,38.63
2022-12-20T00:30:40.347Z,37.40
2022-12-20T00:34:42.160Z,38.30
2022-12-20T00:38:48.849Z,38.57
2022-12-20T00:42:50.807Z,38.13
2022-12-20T00:46:52.760Z,37.37
2022-12-20T00:51:03.440Z,40.80
2022-12-20T00:55:05.482Z,38.50
2022-12-20T00:59:07.522Z,37.33
2022-12-20T01:03:09.964Z,41.20
2022-12-20T01:07:11.938Z,37.53
2022-12-20T01:11:17.172Z,36.37
2022-12-20T01:15:19.761Z,34.27
2022-12-20T01:19:21.559Z,38.13
2022-12-20T01:23:23.325Z,35.60
2022-12-20T01:27:25.321Z,36.27
2022-12-20T01:31:28.826Z,36.27
2022-12-20T01:35:30.561Z,35.10
2022-12-20T01:39:32.430Z,32.97
2022-12-20T01:43:46.453Z,35.37
2022-12-20T01:47:48.518Z,33.97
2022-12-20T01:51:54.864Z,36.67
2022-12-20T01:55:59.862Z,33.57
2022-12-20T02:00:02.119Z,33.70
2022-12-20T02:04:15.281Z,34.03
2022-12-20T02:08:20.331Z,35.97
2022-12-20T02:12:25.359Z,35.87
2022-12-20T02:16:30.096Z,33.77
2022-12-20T02:21:05.655Z,34.83
2022-12-20T02:25:27.622Z,35.27
2022-12-20T02:30:06.897Z,35.90
2022-12-20T02:34:10.719Z,33.83
2022-12-20T02:38:36.970Z,34.43
2022-12-20T02:42:38.984Z,34.63
2022-12-20T02:46:42.057Z,34.37
2022-12-20T02:50:47.604Z,35.60
2022-12-20T02:54:49.399Z,34.70
2022-12-20T02:59:09.098Z,32.97
2022-12-20T03:03:23.519Z,35.13
2022-12-20T03:07:25.370Z,33.10
2022-12-20T03:11:27.454Z,34.30
2022-12-20T03:15:29.214Z,33.27
2022-12-20T03:19:33.091Z,32.50
2022-12-20T03:23:34.912Z,31.93
2022-12-20T03:27:36.709Z,33.23
2022-12-20T03:31:38.776Z,33.40
2022-12-20T03:35:40.760Z,31.90
2022-12-20T03:39:44.040Z,30.30
2022-12-20T03:43:45.967Z,32.07
2022-12-20T03:47:47.747Z,32.07
2022-12-20T03:51:49.567Z,33.27
2022-12-20T03:55:51.487Z,32.30
2022-12-20T03:59:54.281Z,30.77
2022-12-20T04:03:56.657Z,33.23
2022-12-20T04:07:58.570Z,32.17
2022-12-20T04:12:01.563Z,32.37
2022-12-20T04:16:05.192Z,31.57
2022-12-20T04:20:19.463Z,30.57
2022-12-20T04:24:26.913Z,31.07
2022-12-20T04:28:58.005Z,32.20
2022-12-20T04:32:59.853Z,33.57
2022-12-20T04:37:02.349Z,31.73
2022-12-20T04:41:24.595Z,32.57
2022-12-20T04:45:31.995Z,32.50
2022-12-20T04:49:33.947Z,32.70
2022-12-20T04:53:50.849Z,30.30
2022-12-20T04:58:07.862Z,31.53
2022-12-20T05:02:12.366Z,32.40
2022-12-20T05:06:25.965Z,32.10
2022-12-20T05:10:28.093Z,32.33
2022-12-20T05:14:32.833Z,33.10
2022-12-20T05:18:34.950Z,31.07
2022-12-20T05:22:59.830Z,32.70
2022-12-20T05:27:01.730Z,31.20
2022-12-20T05:31:04.278Z,30.17
2022-12-20T05:35:09.307Z,29.70
2022-12-20T05:39:12.305Z,30.70
2022-12-20T05:43:17.047Z,30.13
2022-12-20T05:47:20.761Z,30.60
2022-12-20T05:51:25.403Z,31.73
2022-12-20T05:55:37.260Z,31.97
2022-12-20T05:59:39.641Z,31.57
2022-12-20T06:03:46.851Z,28.70
2022-12-20T06:07:51.369Z,44.97
2022-12-20T06:11:54.271Z,39.90
2022-12-20T06:15:57.216Z,34.00
2022-12-20T06:19:59.030Z,28.97
2022-12-20T06:24:01.580Z,27.97
2022-12-20T06:28:04.386Z,26.63
2022-12-20T06:32:06.804Z,25.43
2022-12-20T06:36:08.869Z,25.70
2022-12-20T06:40:13.669Z,27.40
2022-12-20T06:44:15.751Z,28.37
2022-12-20T06:48:17.943Z,29.33
2022-12-20T06:52:19.801Z,29.10
2022-12-20T06:56:24.470Z,29.50
2022-12-20T07:00:27.426Z,29.77
2022-12-20T07:04:29.271Z,28.87
2022-12-20T07:08:31.060Z,28.67
2022-12-20T07:12:33.546Z,27.97
2022-12-20T07:16:36.273Z,27.27
2022-12-20T07:20:39.688Z,26.57
2022-12-20T07:24:41.475Z,24.23
2022-12-20T07:28:43.855Z,24.80
2022-12-20T07:32:46.660Z,26.83
2022-12-20T07:36:48.579Z,27.77
2022-12-20T07:40:50.540Z,27.90
2022-12-20T07:44:52.309Z,27.57
2022-12-20T07:48:54.199Z,29.97
2022-12-20T07:52:56.377Z,32.70
2022-12-20T07:57:04.039Z,30.60
2022-12-20T08:01:06.427Z,28.97
2022-12-20T08:05:09.829Z,33.97
2022-12-20T08:09:13.442Z,38.47
2022-12-20T08:13:15.701Z,41.00
2022-12-20T08:17:17.573Z,40.80
2022-12-20T08:21:19.350Z,40.37
2022-12-20T08:25:21.636Z,37.87
2022-12-20T08:29:23.410Z,37.17
2022-12-20T08:33:25.180Z,38.43
2022-12-20T08:37:26.931Z,38.40
2022-12-20T08:41:28.749Z,39.53
2022-12-20T08:45:30.531Z,39.30
2022-12-20T08:49:32.492Z,52.87
2022-12-20T08:53:35.060Z,54.77
2022-12-20T08:57:36.819Z,42.17
2022-12-20T09:01:38.798Z,38.77
2022-12-20T09:05:45.503Z,40.03
2022-12-20T09:09:47.618Z,38.07
2022-12-20T09:13:52.719Z,38.87
2022-12-20T09:17:55.527Z,37.03
2022-12-20T09:21:57.290Z,37.97
2022-12-20T09:26:13.382Z,36.63
2022-12-20T09:30:15.360Z,37.13
2022-12-20T09:34:17.153Z,38.53
2022-12-20T09:38:18.998Z,39.37
2022-12-20T09:42:24.452Z,39.70
2022-12-20T09:46:27.168Z,40.03
2022-12-20T09:50:45.039Z,39.97
2022-12-20T09:54:52.890Z,39.37
2022-12-20T09:59:02.546Z,37.50
2022-12-20T10:03:10.408Z,37.13
2022-12-20T10:07:18.428Z,38.70
2022-12-20T10:11:52.553Z,39.03
2022-12-20T10:16:28.709Z,38.00
2022-12-20T10:21:11.073Z,38.17
2022-12-20T10:25:24.742Z,39.57
2022-12-20T10:29:26.786Z,40.20
2022-12-20T10:33:31.282Z,38.43
2022-12-20T10:37:33.197Z,39.33
2022-12-20T10:41:41.038Z,36.10
2022-12-20T10:45:43.744Z,37.10
2022-12-20T10:49:45.530Z,37.33
2022-12-20T10:53:56.787Z,35.07
2022-12-20T10:58:14.579Z,34.67
2022-12-20T11:02:38.809Z,33.10
2022-12-20T11:06:45.468Z,36.13
2022-12-20T11:10:47.702Z,37.27
2022-12-20T11:14:49.678Z,34.10
2022-12-20T11:19:08.642Z,34.63
2022-12-20T11:23:16.182Z,35.33
2022-12-20T11:27:37.800Z,32.53
2022-12-20T11:31:57.034Z,35.97
2022-12-20T11:36:06.282Z,33.50
2022-12-20T11:40:23.205Z,34.97
2022-12-20T11:44:51.501Z,33.13
2022-12-20T11:49:34.484Z,33.30
2022-12-20T11:53:45.586Z,33.50
2022-12-20T11:58:17.581Z,32.93
2022-12-20T12:02:38.475Z,37.07
2022-12-20T12:06:53.441Z,35.40
2022-12-20T12:11:04.214Z,33.50
2022-12-20T12:15:16.987Z,34.33
2022-12-20T12:19:19.070Z,36.63
2022-12-20T12:23:42.596Z,33.77
2022-12-20T12:27:44.790Z,33.53
2022-12-20T12:32:04.195Z,34.00
2022-12-20T12:36:27.080Z,32.53
2022-12-20T12:41:23.386Z,35.67
2022-12-20T12:45:35.036Z,35.57
2022-12-20T12:49:37.953Z,33.73
2022-12-20T12:53:44.037Z,33.90
2022-12-20T12:57:59.195Z,37.03
2022-12-20T13:02:04.353Z,38.30
2022-12-20T13:06:28.223Z,34.23
2022-12-20T13:10:31.609Z,34.93
2022-12-20T13:14:36.449Z,35.90
2022-12-20T13:18:38.536Z,36.87
2022-12-20T13:22:40.311Z,35.57
2022-12-20T13:26:50.769Z,36.90
2022-12-20T13:31:01.938Z,40.53
2022-12-20T13:35:29.556Z,41.53
2022-12-20T13:39:35.589Z,53.00
2022-12-20T13:43:44.164Z,38.87
2022-12-20T13:47:52.669Z,39.87
2022-12-20T13:52:12.085Z,36.23
2022-12-20T13:56:32.361Z,37.03
2022-12-20T14:00:34.628Z,36.73
2022-12-20T14:04:46.052Z,37.47
2022-12-20T14:08:50.521Z,40.00
2022-12-20T14:12:53.720Z,38.07
2022-12-20T14:16:55.667Z,38.77
2022-12-20T14:21:05.282Z,37.13
2022-12-20T14:25:08.839Z,39.87
2022-12-20T14:29:12.401Z,43.73
2022-12-20T14:33:30.764Z,44.90
2022-12-20T14:37:36.526Z,46.43
2022-12-20T14:41:43.543Z,45.87
2022-12-20T14:45:45.434Z,45.30
2022-12-20T14:49:52.471Z,42.90
2022-12-20T14:53:59.668Z,43.73
2022-12-20T14:58:02.015Z,44.10
2022-12-20T15:02:33.266Z,42.80
2022-12-20T15:06:41.165Z,43.70
2022-12-20T15:10:57.277Z,43.63
2022-12-20T15:15:17.774Z,42.77
2022-12-20T15:19:20.950Z,44.80
2022-12-20T15:23:23.077Z,45.83
2022-12-20T15:27:24.821Z,47.30
2022-12-20T15:31:33.443Z,52.87
2022-12-20T15:35:35.986Z,55.87
2022-12-20T15:39:38.543Z,66.17
2022-12-20T15:43:40.412Z,50.80
2022-12-20T15:47:42.779Z,51.83
2022-12-20T15:51:46.734Z,49.37
2022-12-20T15:55:50.495Z,47.83
2022-12-20T16:00:02.363Z,51.07
2022-12-20T16:04:19.292Z,48.17
2022-12-20T16:08:21.117Z,45.33
2022-12-20T16:12:26.851Z,47.67
2022-12-20T16:16:33.969Z,59.03
2022-12-20T16:20:35.850Z,48.60
2022-12-20T16:24:37.606Z,51.47
2022-12-20T16:28:39.745Z,49.00
2022-12-20T16:32:41.721Z,49.10
2022-12-20T16:36:44.717Z,47.73
2022-12-20T16:40:46.508Z,46.30
2022-12-20T16:44:52.175Z,46.43
2022-12-20T16:48:58.646Z,55.53
2022-12-20T16:53:00.495Z,58.23
2022-12-20T16:57:02.299Z,55.13
2022-12-20T17:01:04.102Z,54.07
2022-12-20T17:05:06.385Z,48.27
2022-12-20T17:09:09.008Z,49.57
2022-12-20T17:13:11.715Z,46.43
2022-12-20T17:17:13.736Z,47.10
2022-12-20T17:26:04.737Z,46.00
2022-12-20T17:30:07.262Z,51.37
2022-12-20T17:34:30.154Z,47.97
2022-12-20T17:38:32.014Z,49.70
2022-12-20T17:42:33.825Z,54.47
2022-12-20T17:46:35.559Z,52.00
2022-12-20T17:50:38.685Z,54.40
2022-12-20T17:54:40.550Z,58.60
2022-12-20T17:58:45.594Z,61.80
2022-12-20T18:02:47.464Z,58.60
2022-12-20T18:06:49.898Z,55.17
2022-12-20T18:10:51.683Z,56.93
2022-12-20T18:14:53.588Z,55.93
2022-12-20T18:18:56.607Z,53.43
2022-12-20T18:22:58.364Z,55.60
2022-12-20T18:27:00.139Z,53.33
2022-12-20T18:31:03.897Z,54.70
2022-12-20T18:35:06.771Z,57.43
2022-12-20T18:39:11.857Z,54.07
2022-12-20T18:43:13.639Z,50.27
2022-12-20T18:47:15.453Z,49.87
2022-12-20T18:51:19.983Z,58.87
2022-12-20T18:55:21.939Z,70.43
2022-12-20T18:59:23.946Z,57.30
2022-12-20T19:03:27.132Z,50.57
2022-12-20T19:07:28.995Z,44.93
2022-12-20T19:11:30.903Z,47.30
2022-12-20T19:15:32.794Z,46.60
2022-12-20T19:19:34.634Z,52.17
2022-12-20T19:23:37.814Z,48.20
2022-12-20T19:27:40.465Z,53.00
2022-12-20T19:31:42.323Z,51.40
2022-12-20T19:35:59.755Z,45.00
2022-12-20T19:40:01.813Z,43.77
2022-12-20T19:44:04.220Z,45.40
2022-12-20T19:48:06.071Z,43.87
2022-12-20T19:52:07.974Z,41.63
2022-12-20T19:56:10.310Z,44.67
2022-12-20T20:00:12.730Z,45.67
2022-12-20T20:04:14.486Z,42.17
2022-12-20T20:08:16.715Z,43.23
2022-12-20T20:12:18.729Z,37.17
2022-12-20T20:16:22.797Z,39.63
2022-12-20T20:20:25.009Z,41.50
2022-12-20T20:24:26.787Z,41.90
2022-12-20T20:28:33.137Z,42.03
2022-12-20T20:32:36.957Z,43.23
2022-12-20T20:36:38.939Z,38.90
2022-12-20T20:40:41.091Z,40.03
2022-12-20T20:44:42.936Z,40.13
2022-12-20T20:48:45.278Z,38.27
2022-12-20T20:52:47.488Z,44.00
2022-12-20T20:56:49.422Z,45.97
2022-12-20T21:00:59.688Z,47.63
2022-12-20T21:05:59.225Z,45.50
2022-12-20T21:09:23.301Z,44.73
2022-12-20T21:13:25.063Z,46.93
2022-12-20T21:17:26.950Z,49.97
2022-12-20T21:21:28.930Z,48.57
2022-12-20T21:25:30.982Z,47.93
2022-12-20T21:29:32.861Z,50.53
2022-12-20T21:33:34.676Z,49.83
2022-12-20T21:37:36.608Z,54.70
2022-12-20T21:41:38.494Z,49.97
2022-12-20T21:45:40.225Z,47.70
2022-12-20T21:49:42.123Z,47.57
2022-12-20T21:53:46.838Z,49.40
2022-12-20T21:57:48.682Z,50.43
2022-12-20T22:01:50.766Z,48.53
2022-12-20T22:05:54.607Z,45.90
2022-12-20T22:09:56.440Z,48.40
2022-12-20T22:13:58.335Z,46.00
2022-12-20T22:18:00.194Z,45.27
2022-12-20T22:22:02.051Z,43.43
2022-12-20T22:26:05.709Z,40.43
2022-12-20T22:30:08.203Z,41.47
2022-12-20T22:34:10.276Z,40.97
2022-12-20T22:38:12.120Z,39.40
2022-12-20T22:42:13.857Z,37.57
2022-12-20T22:46:18.019Z,27.70
2022-12-20T22:50:20.142Z,27.10
2022-12-20T22:54:22.891Z,30.20
2022-12-20T22:58:24.767Z,27.70
2022-12-20T23:02:27.835Z,27.13
2022-12-20T23:06:29.754Z,28.07
2022-12-20T23:10:50.425Z,30.23
2022-12-20T23:15:10.709Z,36.87
2022-12-20T23:19:12.759Z,36.77
2022-12-20T23:23:14.629Z,36.73
2022-12-20T23:27:16.372Z,35.37
2022-12-20T23:31:18.210Z,36.53
2022-12-20T23:35:21.242Z,35.27
2022-12-20T23:39:23.059Z,35.03
2022-12-20T23:43:25.249Z,35.97
2022-12-20T23:47:27.023Z,34.60
2022-12-20T23:51:28.856Z,33.63
2022-12-20T23:55:30.606Z,34.50
2022-12-20T23:59:33.563Z,35.50
